createdAt,value
2019-05-09T00:02:33.547Z,88.69
2019-05-09T00:05:03.620Z,89.35
2019-05-09T00:07:33.717Z,89.35
2019-05-09T00:10:04.085Z,88.57
2019-05-09T00:12:33.509Z,88.67
2019-05-09T00:15:04.533Z,89.14
2019-05-09T00:17:33.865Z,89.64
2019-05-09T00:20:09.639Z,90.77
2019-05-09T00:22:38.549Z,90.99
2019-05-09T00:25:07.427Z,89.74
2019-05-09T00:27:36.268Z,88.66
2019-05-09T00:30:06.336Z,89.25
2019-05-09T00:32:39.900Z,89.55
2019-05-09T00:35:33.990Z,89.67
2019-05-09T00:38:07.757Z,90.40
2019-05-09T00:40:36.574Z,90.28
2019-05-09T00:43:05.436Z,90.70
2019-05-09T00:45:54.194Z,91.10
2019-05-09T00:48:27.291Z,91.30
2019-05-09T00:50:56.288Z,91.62
2019-05-09T00:53:25.283Z,91.38
2019-05-09T00:55:54.315Z,92.05
2019-05-09T00:58:24.137Z,91.84
2019-05-09T01:00:53.385Z,92.20
2019-05-09T01:03:23.429Z,92.00
2019-05-09T01:05:54.254Z,92.44
2019-05-09T01:08:24.169Z,93.14
2019-05-09T01:11:08.248Z,93.43
2019-05-09T01:13:23.964Z,93.12
2019-05-09T01:15:53.369Z,92.53
2019-05-09T01:18:23.708Z,91.54
2019-05-09T01:20:53.182Z,90.13
2019-05-09T01:23:23.432Z,90.21
2019-05-09T01:25:53.010Z,89.31
2019-05-09T01:28:23.231Z,89.43
2019-05-09T01:30:53.195Z,90.24
2019-05-09T01:33:50.454Z,88.98
2019-05-09T01:36:19.448Z,89.42
2019-05-09T01:38:48.292Z,88.44
2019-05-09T01:41:29.761Z,88.28
2019-05-09T01:43:48.587Z,88.32
2019-05-09T01:46:17.591Z,88.44
2019-05-09T01:48:46.476Z,88.57
2019-05-09T01:51:15.411Z,88.50
2019-05-09T01:53:49.909Z,88.95
2019-05-09T01:56:18.844Z,88.85
2019-05-09T01:58:47.872Z,89.28
2019-05-09T02:01:16.841Z,89.37
2019-05-09T02:03:45.641Z,89.69
2019-05-09T02:06:15.140Z,89.80
2019-05-09T02:08:43.986Z,89.90
2019-05-09T02:11:13.463Z,89.28
2019-05-09T02:13:44.209Z,89.09
2019-05-09T02:16:30.698Z,88.40
2019-05-09T02:19:09.176Z,88.89
2019-05-09T02:21:38.102Z,89.17
2019-05-09T02:24:06.957Z,89.01
2019-05-09T02:26:35.831Z,89.24
2019-05-09T02:29:04.844Z,89.50
2019-05-09T02:31:35.413Z,89.98
2019-05-09T02:34:05.092Z,90.53
2019-05-09T02:36:34.158Z,90.77
2019-05-09T02:39:03.892Z,90.79
2019-05-09T02:41:32.797Z,90.77
2019-05-09T02:44:01.704Z,90.92
2019-05-09T02:46:49.686Z,90.90
2019-05-09T02:49:19.282Z,90.80
2019-05-09T02:51:48.891Z,91.06
2019-05-09T02:54:19.011Z,91.10
2019-05-09T02:56:49.234Z,91.08
2019-05-09T02:59:40.157Z,91.02
2019-05-09T03:02:19.360Z,90.75
2019-05-09T03:04:48.895Z,90.49
2019-05-09T03:07:19.777Z,90.66
2019-05-09T03:09:48.712Z,91.05
2019-05-09T03:12:30.416Z,91.50
2019-05-09T03:14:48.814Z,91.79
2019-05-09T03:17:18.782Z,92.42
2019-05-09T03:19:48.785Z,93.26
2019-05-09T03:22:19.992Z,93.26
2019-05-09T03:24:48.920Z,93.59
2019-05-09T03:27:25.115Z,94.29
2019-05-09T03:29:58.956Z,94.52
2019-05-09T03:32:29.639Z,94.25
2019-05-09T03:34:58.101Z,93.89
2019-05-09T03:37:27.852Z,93.55
2019-05-09T03:39:58.125Z,93.02
2019-05-09T03:42:38.170Z,92.78
2019-05-09T03:44:58.191Z,92.53
2019-05-09T03:47:37.648Z,92.26
2019-05-09T03:50:17.735Z,91.92
2019-05-09T03:52:47.775Z,91.77
2019-05-09T03:55:21.043Z,91.45
2019-05-09T03:57:58.055Z,91.29
2019-05-09T04:00:28.313Z,91.08
2019-05-09T04:02:58.089Z,90.61
2019-05-09T04:05:27.401Z,90.38
2019-05-09T04:08:00.064Z,89.74
2019-05-09T04:10:28.911Z,89.51
2019-05-09T04:12:59.630Z,89.48
2019-05-09T04:15:28.248Z,89.30
2019-05-09T04:17:57.906Z,88.72
2019-05-09T04:20:27.735Z,89.00
2019-05-09T04:22:59.305Z,88.63
2019-05-09T04:25:30.990Z,88.41
2019-05-09T04:28:00.002Z,87.54
2019-05-09T04:30:28.960Z,87.02
2019-05-09T04:32:58.241Z,86.02
2019-05-09T04:35:27.981Z,86.02
2019-05-09T04:37:58.414Z,84.58
2019-05-09T04:40:31.729Z,84.89
2019-05-09T04:43:10.867Z,84.99
2019-05-09T04:45:38.796Z,84.54
2019-05-09T04:48:13.130Z,84.51
2019-05-09T04:50:40.813Z,83.88
2019-05-09T04:53:09.598Z,83.71
2019-05-09T04:55:39.368Z,83.74
2019-05-09T04:58:09.297Z,84.18
2019-05-09T05:01:07.291Z,84.16
2019-05-09T05:03:37.614Z,83.15
2019-05-09T05:06:07.687Z,82.81
2019-05-09T05:08:37.544Z,82.56
2019-05-09T05:11:07.467Z,82.15
2019-05-09T05:13:38.388Z,81.23
2019-05-09T05:16:08.364Z,81.23
2019-05-09T05:18:37.526Z,80.02
2019-05-09T05:21:07.837Z,79.31
2019-05-09T05:23:43.070Z,78.92
2019-05-09T05:26:12.020Z,79.23
2019-05-09T05:28:40.838Z,79.48
2019-05-09T05:31:09.757Z,80.45
2019-05-09T05:33:51.179Z,79.96
2019-05-09T05:36:18.265Z,79.32
2019-05-09T05:38:47.943Z,77.64
2019-05-09T05:41:18.296Z,77.75
2019-05-09T05:43:47.988Z,76.61
2019-05-09T05:46:29.942Z,76.65
2019-05-09T05:48:58.907Z,76.27
2019-05-09T05:51:27.867Z,75.57
2019-05-09T05:53:57.484Z,75.80
2019-05-09T05:56:27.971Z,76.05
2019-05-09T05:58:58.019Z,74.35
2019-05-09T06:01:27.832Z,74.25
2019-05-09T06:03:58.611Z,73.44
2019-05-09T06:06:28.046Z,73.17
2019-05-09T06:08:57.888Z,74.04
2019-05-09T06:11:28.052Z,73.42
2019-05-09T06:14:04.287Z,71.59
2019-05-09T06:16:28.217Z,71.41
2019-05-09T06:18:58.599Z,72.03
2019-05-09T06:21:28.368Z,72.06
2019-05-09T06:23:58.437Z,73.08
2019-05-09T06:26:29.223Z,74.31
2019-05-09T06:28:58.458Z,76.27
2019-05-09T06:31:28.452Z,76.79
2019-05-09T06:33:57.957Z,77.88
2019-05-09T06:36:28.308Z,78.53
2019-05-09T06:38:58.801Z,80.39
2019-05-09T06:41:28.673Z,80.66
2019-05-09T06:44:16.212Z,81.48
2019-05-09T06:46:39.584Z,78.82
2019-05-09T06:49:24.355Z,79.02
2019-05-09T06:51:43.040Z,77.51
2019-05-09T06:54:12.256Z,78.18
2019-05-09T06:56:41.037Z,78.91
2019-05-09T06:59:10.031Z,78.23
2019-05-09T07:01:48.043Z,78.23
2019-05-09T07:04:27.772Z,77.04
2019-05-09T07:07:03.788Z,78.30
2019-05-09T07:09:58.564Z,77.71
2019-05-09T07:12:28.019Z,78.24
2019-05-09T07:14:58.085Z,79.11
2019-05-09T07:17:31.768Z,79.16
2019-05-09T07:19:58.901Z,81.44
2019-05-09T07:22:35.489Z,82.15
2019-05-09T07:25:11.045Z,83.10
2019-05-09T07:27:39.179Z,82.45
2019-05-09T07:30:40.822Z,82.32
2019-05-09T07:33:31.747Z,81.86
2019-05-09T07:36:00.635Z,80.89
2019-05-09T07:38:30.951Z,80.95
2019-05-09T07:41:01.023Z,81.52
2019-05-09T07:43:30.303Z,80.75
2019-05-09T07:46:11.454Z,80.56
2019-05-09T07:48:50.092Z,80.92
2019-05-09T07:51:19.626Z,81.84
2019-05-09T07:53:59.089Z,81.11
2019-05-09T07:56:28.702Z,79.26
2019-05-09T07:59:00.344Z,80.17
2019-05-09T08:01:29.314Z,79.67
2019-05-09T08:03:59.148Z,79.58
2019-05-09T08:06:28.821Z,76.09
2019-05-09T08:08:58.230Z,78.48
2019-05-09T08:11:28.743Z,78.66
2019-05-09T08:13:58.125Z,78.66
2019-05-09T08:16:27.936Z,79.73
2019-05-09T08:18:57.744Z,80.01
2019-05-09T08:21:27.816Z,80.23
2019-05-09T08:23:57.851Z,80.75
2019-05-09T08:26:29.797Z,80.94
2019-05-09T08:28:58.550Z,81.67
2019-05-09T08:31:28.199Z,82.18
2019-05-09T08:33:59.307Z,82.05
2019-05-09T08:36:28.400Z,82.50
2019-05-09T08:38:58.647Z,81.37
2019-05-09T08:41:29.031Z,79.98
2019-05-09T08:43:58.488Z,77.94
2019-05-09T08:46:28.628Z,78.28
2019-05-09T08:48:57.903Z,78.31
2019-05-09T08:52:10.066Z,78.40
2019-05-09T08:54:42.745Z,78.66
2019-05-09T08:57:11.778Z,78.95
2019-05-09T08:59:40.735Z,79.29
2019-05-09T09:02:15.390Z,78.03
2019-05-09T09:04:40.392Z,78.55
2019-05-09T09:07:09.395Z,78.46
2019-05-09T09:09:40.252Z,78.76
2019-05-09T09:12:25.797Z,79.74
2019-05-09T09:14:40.753Z,79.06
2019-05-09T09:17:09.723Z,80.52
2019-05-09T09:19:38.830Z,79.90
2019-05-09T09:22:08.879Z,78.74
2019-05-09T09:24:37.980Z,80.19
2019-05-09T09:27:07.686Z,78.45
2019-05-09T09:29:37.978Z,79.00
2019-05-09T09:32:08.274Z,80.62
2019-05-09T09:34:38.109Z,80.78
2019-05-09T09:37:11.315Z,81.86
2019-05-09T09:39:44.407Z,81.79
2019-05-09T09:42:09.283Z,81.17
2019-05-09T09:44:39.300Z,80.95
2019-05-09T09:47:08.716Z,81.99
2019-05-09T09:49:38.349Z,82.38
2019-05-09T09:52:08.566Z,82.94
2019-05-09T09:54:38.697Z,83.19
2019-05-09T09:57:09.702Z,83.65
2019-05-09T09:59:44.869Z,84.20
2019-05-09T10:02:14.842Z,84.20
2019-05-09T10:04:43.954Z,85.11
2019-05-09T10:07:12.969Z,86.26
2019-05-09T10:09:41.991Z,86.13
2019-05-09T10:12:11.230Z,86.52
2019-05-09T10:14:45.244Z,84.17
2019-05-09T10:17:32.183Z,82.96
2019-05-09T10:20:18.628Z,81.50
2019-05-09T10:22:58.487Z,80.46
2019-05-09T10:25:18.493Z,81.35
2019-05-09T10:27:48.076Z,81.31
2019-05-09T10:30:18.588Z,80.38
2019-05-09T10:32:47.724Z,80.69
2019-05-09T10:35:22.988Z,80.13
2019-05-09T10:37:51.968Z,80.13
2019-05-09T10:40:24.470Z,77.67
2019-05-09T10:43:01.309Z,78.33
2019-05-09T10:45:49.317Z,77.64
2019-05-09T10:48:23.935Z,78.17
2019-05-09T10:50:53.760Z,80.30
2019-05-09T10:53:19.788Z,80.30
2019-05-09T10:55:48.700Z,80.95
2019-05-09T10:58:20.212Z,82.12
2019-05-09T11:00:48.419Z,81.85
2019-05-09T11:03:18.113Z,81.55
2019-05-09T11:05:47.239Z,81.29
2019-05-09T11:08:18.449Z,80.96
2019-05-09T11:10:47.553Z,79.56
2019-05-09T11:13:18.175Z,79.54
2019-05-09T11:15:48.009Z,77.62
2019-05-09T11:18:18.505Z,78.20
2019-05-09T11:20:47.801Z,75.91
2019-05-09T11:23:19.208Z,77.16
2019-05-09T11:25:47.355Z,78.37
2019-05-09T11:28:17.984Z,78.01
2019-05-09T11:30:47.663Z,76.80
2019-05-09T11:33:18.359Z,78.01
2019-05-09T11:35:47.968Z,77.24
2019-05-09T11:38:29.615Z,77.16
2019-05-09T11:40:48.354Z,77.87
2019-05-09T11:43:18.143Z,77.46
2019-05-09T11:45:47.922Z,76.15
2019-05-09T11:48:18.677Z,77.54
2019-05-09T11:50:47.838Z,77.14
2019-05-09T11:53:17.666Z,77.48
2019-05-09T11:55:48.272Z,79.77
2019-05-09T11:58:18.095Z,80.17
2019-05-09T12:00:48.230Z,80.76
2019-05-09T12:03:18.892Z,81.53
2019-05-09T12:05:47.924Z,82.55
2019-05-09T12:08:17.694Z,83.77
2019-05-09T12:10:46.872Z,83.47
2019-05-09T12:13:18.467Z,85.24
2019-05-09T12:15:48.943Z,85.38
2019-05-09T12:18:17.036Z,86.66
2019-05-09T12:20:48.280Z,85.92
2019-05-09T12:23:19.652Z,86.39
2019-05-09T12:25:47.049Z,87.87
2019-05-09T12:28:18.769Z,87.28
2019-05-09T12:30:48.935Z,86.77
2019-05-09T12:33:18.811Z,86.97
2019-05-09T12:35:47.936Z,88.76
2019-05-09T12:38:18.057Z,88.51
2019-05-09T12:40:48.223Z,89.25
2019-05-09T12:43:18.560Z,89.01
2019-05-09T12:45:47.966Z,89.84
2019-05-09T12:48:19.369Z,91.12
2019-05-09T12:50:48.875Z,91.04
2019-05-09T12:53:18.944Z,91.06
2019-05-09T12:55:49.637Z,91.86
2019-05-09T12:58:27.869Z,91.64
2019-05-09T13:00:58.437Z,92.40
2019-05-09T13:03:28.156Z,93.31
2019-05-09T13:05:57.676Z,93.21
2019-05-09T13:08:27.793Z,94.17
2019-05-09T13:10:58.364Z,93.55
2019-05-09T13:13:30.228Z,94.62
2019-05-09T13:16:11.953Z,94.54
2019-05-09T13:19:00.295Z,94.19
2019-05-09T13:21:29.663Z,93.33
2019-05-09T13:23:58.837Z,92.97
2019-05-09T13:26:28.789Z,93.00
2019-05-09T13:28:59.142Z,93.03
2019-05-09T13:31:29.501Z,93.41
2019-05-09T13:33:58.766Z,94.11
2019-05-09T13:36:28.629Z,95.76
2019-05-09T13:39:04.355Z,96.13
2019-05-09T13:41:28.353Z,95.27
2019-05-09T13:44:03.825Z,95.48
2019-05-09T13:46:28.410Z,95.24
2019-05-09T13:49:11.100Z,95.08
2019-05-09T13:51:28.277Z,94.97
2019-05-09T13:53:59.346Z,95.29
2019-05-09T13:56:28.125Z,95.87
2019-05-09T13:58:58.157Z,96.18
2019-05-09T14:01:27.400Z,96.15
2019-05-09T14:03:57.699Z,95.09
2019-05-09T14:06:27.741Z,95.33
2019-05-09T14:08:59.419Z,95.76
2019-05-09T14:11:29.077Z,95.82
2019-05-09T14:13:58.251Z,95.65
2019-05-09T14:16:28.764Z,95.84
2019-05-09T14:19:00.597Z,95.59
2019-05-09T14:21:29.793Z,95.64
2019-05-09T14:24:10.779Z,94.77
2019-05-09T14:26:29.639Z,93.96
2019-05-09T14:28:58.623Z,94.49
2019-05-09T14:31:32.124Z,93.97
2019-05-09T14:33:58.237Z,93.98
2019-05-09T14:36:27.790Z,94.64
2019-05-09T14:38:57.977Z,92.15
2019-05-09T14:41:27.820Z,94.24
2019-05-09T14:43:59.638Z,89.42
2019-05-09T14:46:28.482Z,80.63
2019-05-09T14:48:58.447Z,78.58
2019-05-09T14:51:28.407Z,82.08
2019-05-09T14:53:59.398Z,78.01
2019-05-09T14:56:28.475Z,78.76
2019-05-09T14:58:58.138Z,80.08
2019-05-09T15:01:28.819Z,81.15
2019-05-09T15:03:58.774Z,76.69
2019-05-09T15:06:28.376Z,76.69
2019-05-09T15:08:58.203Z,75.85
2019-05-09T15:11:28.261Z,77.02
2019-05-09T15:13:58.520Z,75.21
2019-05-09T15:16:28.391Z,72.32
2019-05-09T15:18:58.555Z,73.59
2019-05-09T15:21:27.645Z,73.85
2019-05-09T15:23:58.964Z,69.99
2019-05-09T15:26:27.698Z,66.39
2019-05-09T15:28:57.751Z,65.42
2019-05-09T15:31:28.640Z,62.61
2019-05-09T15:33:57.897Z,63.45
2019-05-09T15:36:26.729Z,62.35
2019-05-09T15:38:55.609Z,64.16
2019-05-09T15:41:24.469Z,65.69
2019-05-09T15:43:53.267Z,68.10
2019-05-09T15:46:27.866Z,69.26
2019-05-09T15:48:58.250Z,68.24
2019-05-09T15:51:27.981Z,67.08
2019-05-09T15:53:57.807Z,65.99
2019-05-09T15:56:28.828Z,67.77
2019-05-09T15:58:58.104Z,69.02
2019-05-09T16:01:27.890Z,69.33
2019-05-09T16:03:57.152Z,70.15
2019-05-09T16:06:32.622Z,71.25
2019-05-09T16:08:58.563Z,71.10
2019-05-09T16:11:28.577Z,71.00
2019-05-09T16:13:57.795Z,71.65
2019-05-09T16:16:28.648Z,72.13
2019-05-09T16:18:58.263Z,71.54
2019-05-09T16:21:27.908Z,71.34
2019-05-09T16:23:59.252Z,70.71
2019-05-09T16:26:29.091Z,71.43
2019-05-09T16:28:58.366Z,71.17
2019-05-09T16:31:27.914Z,71.85
2019-05-09T16:33:58.156Z,72.66
2019-05-09T16:36:28.166Z,73.36
2019-05-09T16:38:58.405Z,74.07
2019-05-09T16:41:28.084Z,73.69
2019-05-09T16:43:58.378Z,75.02
2019-05-09T16:46:28.640Z,75.76
2019-05-09T16:48:58.232Z,76.52
2019-05-09T16:51:28.626Z,76.84
2019-05-09T16:53:58.501Z,76.71
2019-05-09T16:56:28.695Z,76.33
2019-05-09T16:58:58.022Z,77.38
2019-05-09T17:01:28.367Z,77.12
2019-05-09T17:03:57.694Z,77.48
2019-05-09T17:06:27.497Z,75.14
2019-05-09T17:08:58.410Z,73.49
2019-05-09T17:11:27.884Z,75.56
2019-05-09T17:13:58.332Z,72.70
2019-05-09T17:16:28.507Z,75.25
2019-05-09T17:18:58.298Z,77.71
2019-05-09T17:21:42.928Z,79.14
2019-05-09T17:24:14.788Z,74.13
2019-05-09T17:26:43.796Z,71.78
2019-05-09T17:29:12.846Z,71.21
2019-05-09T17:31:41.814Z,71.35
2019-05-09T17:34:10.895Z,67.69
2019-05-09T17:36:39.790Z,65.86
2019-05-09T17:39:09.348Z,65.22
2019-05-09T17:41:38.391Z,68.54
2019-05-09T17:44:07.743Z,70.62
2019-05-09T17:46:38.595Z,72.18
2019-05-09T17:49:08.424Z,73.36
2019-05-09T17:51:37.421Z,75.19
2019-05-09T17:54:08.118Z,75.44
2019-05-09T17:56:37.928Z,75.96
2019-05-09T17:59:08.523Z,76.83
2019-05-09T18:01:37.842Z,77.26
2019-05-09T18:04:09.153Z,78.08
2019-05-09T18:06:38.087Z,78.38
2019-05-09T18:09:08.405Z,78.57
2019-05-09T18:11:37.916Z,79.80
2019-05-09T18:14:08.065Z,80.12
2019-05-09T18:16:38.967Z,80.96
2019-05-09T18:19:09.170Z,81.51
2019-05-09T18:21:49.962Z,82.36
2019-05-09T18:24:09.036Z,82.90
2019-05-09T18:26:38.356Z,83.56
2019-05-09T18:29:07.428Z,84.49
2019-05-09T18:32:07.848Z,85.28
2019-05-09T18:34:38.022Z,85.84
2019-05-09T18:37:08.032Z,86.06
2019-05-09T18:39:37.506Z,86.99
2019-05-09T18:42:08.732Z,87.16
2019-05-09T18:44:38.000Z,87.16
2019-05-09T18:47:07.848Z,86.70
2019-05-09T18:49:36.928Z,87.51
2019-05-09T18:52:05.938Z,87.91
2019-05-09T18:54:35.550Z,88.22
2019-05-09T18:57:04.549Z,88.38
2019-05-09T18:59:33.489Z,88.75
2019-05-09T19:02:02.365Z,88.87
2019-05-09T19:04:31.504Z,89.06
2019-05-09T19:07:00.496Z,89.12
2019-05-09T19:09:29.484Z,88.08
2019-05-09T19:11:58.532Z,88.19
2019-05-09T19:14:27.444Z,88.54
2019-05-09T19:17:15.203Z,88.75
2019-05-09T19:19:50.161Z,89.48
2019-05-09T19:22:22.424Z,89.48
2019-05-09T19:24:49.784Z,89.81
2019-05-09T19:27:18.778Z,89.71
2019-05-09T19:29:47.680Z,89.11
2019-05-09T19:32:16.601Z,88.73
2019-05-09T19:34:45.515Z,88.64
2019-05-09T19:37:14.531Z,88.62
2019-05-09T19:39:43.514Z,88.90
2019-05-09T19:42:12.401Z,89.40
2019-05-09T19:44:41.209Z,88.86
2019-05-09T19:47:10.143Z,87.82
2019-05-09T19:49:39.001Z,87.92
2019-05-09T19:52:08.024Z,88.34
2019-05-09T19:54:37.039Z,88.74
2019-05-09T19:57:06.143Z,88.70
2019-05-09T19:59:35.092Z,88.02
2019-05-09T20:02:04.106Z,87.71
2019-05-09T20:04:32.960Z,88.12
2019-05-09T20:07:01.926Z,87.70
2019-05-09T20:09:37.460Z,87.77
2019-05-09T20:12:28.280Z,88.02
2019-05-09T20:14:57.057Z,87.65
2019-05-09T20:17:26.053Z,87.05
2019-05-09T20:19:54.828Z,86.97
2019-05-09T20:22:23.824Z,86.29
2019-05-09T20:24:52.802Z,87.48
2019-05-09T20:27:21.725Z,86.20
2019-05-09T20:29:50.602Z,86.77
2019-05-09T20:32:19.648Z,86.90
2019-05-09T20:34:48.707Z,86.50
2019-05-09T20:37:17.556Z,87.46
2019-05-09T20:39:46.667Z,86.65
2019-05-09T20:42:15.736Z,86.61
2019-05-09T20:44:44.812Z,86.40
2019-05-09T20:47:14.060Z,86.34
2019-05-09T20:49:43.129Z,85.90
2019-05-09T20:52:12.262Z,86.40
2019-05-09T20:54:41.459Z,85.77
2019-05-09T20:57:10.547Z,85.17
2019-05-09T20:59:39.828Z,84.19
2019-05-09T21:02:09.045Z,84.82
2019-05-09T21:04:38.053Z,84.80
2019-05-09T21:07:07.312Z,85.33
2019-05-09T21:09:36.428Z,84.89
2019-05-09T21:12:05.704Z,84.73
2019-05-09T21:14:34.696Z,86.06
2019-05-09T21:17:03.827Z,85.96
2019-05-09T21:19:32.951Z,85.61
2019-05-09T21:22:01.919Z,86.02
2019-05-09T21:24:31.015Z,86.07
2019-05-09T21:27:00.009Z,86.00
2019-05-09T21:29:30.851Z,86.27
2019-05-09T21:32:00.029Z,86.50
2019-05-09T21:34:29.166Z,87.32
2019-05-09T21:36:58.240Z,87.65
2019-05-09T21:39:27.197Z,88.21
2019-05-09T21:41:56.071Z,88.13
2019-05-09T21:44:24.927Z,88.50
2019-05-09T21:46:53.765Z,88.49
2019-05-09T21:49:22.689Z,88.74
2019-05-09T21:51:51.707Z,88.02
2019-05-09T21:54:20.597Z,87.82
2019-05-09T21:56:49.623Z,88.25
2019-05-09T21:59:18.556Z,88.36
2019-05-09T22:01:47.533Z,88.69
2019-05-09T22:04:17.825Z,88.39
2019-05-09T22:06:47.136Z,87.93
2019-05-09T22:09:16.037Z,87.53
2019-05-09T22:11:45.038Z,86.95
2019-05-09T22:14:13.970Z,87.01
2019-05-09T22:16:43.617Z,86.20
2019-05-09T22:19:12.612Z,86.16
2019-05-09T22:21:41.615Z,86.44
2019-05-09T22:24:10.628Z,86.67
2019-05-09T22:26:39.590Z,86.65
2019-05-09T22:29:08.491Z,86.35
2019-05-09T22:31:37.473Z,86.95
2019-05-09T22:34:06.503Z,87.98
2019-05-09T22:36:35.508Z,88.90
2019-05-09T22:39:05.821Z,88.81
2019-05-09T22:41:34.823Z,88.59
2019-05-09T22:44:04.041Z,89.45
2019-05-09T22:46:32.924Z,88.98
2019-05-09T22:49:01.971Z,89.17
2019-05-09T22:51:30.992Z,89.71
2019-05-09T22:54:12.217Z,88.03
2019-05-09T22:56:30.703Z,87.91
2019-05-09T22:58:59.595Z,87.70
2019-05-09T23:01:28.403Z,88.32
2019-05-09T23:03:57.197Z,89.02
2019-05-09T23:06:26.099Z,89.02
2019-05-09T23:09:06.543Z,89.22
2019-05-09T23:11:35.550Z,88.58
2019-05-09T23:14:04.949Z,88.40
2019-05-09T23:16:36.473Z,88.74
2019-05-09T23:19:06.264Z,88.99
2019-05-09T23:21:35.249Z,89.20
2019-05-09T23:24:27.567Z,89.54
2019-05-09T23:26:43.398Z,89.96
2019-05-09T23:29:12.394Z,89.87
2019-05-09T23:31:56.643Z,89.44
2019-05-09T23:34:25.623Z,88.87
2019-05-09T23:36:54.485Z,88.59
2019-05-09T23:39:25.429Z,88.06
2019-05-09T23:41:54.490Z,88.19
2019-05-09T23:44:23.541Z,88.22
2019-05-09T23:46:52.497Z,88.36
2019-05-09T23:49:21.478Z,88.53
2019-05-09T23:51:50.786Z,88.36
2019-05-09T23:54:47.382Z,88.50
2019-05-09T23:57:28.154Z,88.59
